sensor_id;sensor_type;location;lat;lon;timestamp;temperature;humidity
11647;DHT22;5880;52.342;9.662;2023-03-11T00:00:16;4.00;73.70
11647;DHT22;5880;52.342;9.662;2023-03-11T00:02:49;4.00;73.70
11647;DHT22;5880;52.342;9.662;2023-03-11T00:05:22;4.00;73.80
11647;DHT22;5880;52.342;9.662;2023-03-11T00:07:50;3.90;73.90
11647;DHT22;5880;52.342;9.662;2023-03-11T00:10:18;4.00;73.90
11647;DHT22;5880;52.342;9.662;2023-03-11T00:12:49;3.90;73.90
11647;DHT22;5880;52.342;9.662;2023-03-11T00:15:14;4.00;74.00
11647;DHT22;5880;52.342;9.662;2023-03-11T00:17:40;4.00;74.10
11647;DHT22;5880;52.342;9.662;2023-03-11T00:20:07;4.00;74.10
11647;DHT22;5880;52.342;9.662;2023-03-11T00:22:39;3.90;74.10
11647;DHT22;5880;52.342;9.662;2023-03-11T00:25:05;4.00;74.80
11647;DHT22;5880;52.342;9.662;2023-03-11T00:27:30;4.00;74.10
11647;DHT22;5880;52.342;9.662;2023-03-11T00:29:56;4.00;74.10
11647;DHT22;5880;52.342;9.662;2023-03-11T00:32:22;4.00;74.10
11647;DHT22;5880;52.342;9.662;2023-03-11T00:34:47;4.00;74.10
11647;DHT22;5880;52.342;9.662;2023-03-11T00:37:16;4.00;74.10
11647;DHT22;5880;52.342;9.662;2023-03-11T00:39:41;4.00;74.10
11647;DHT22;5880;52.342;9.662;2023-03-11T00:42:07;4.00;74.10
11647;DHT22;5880;52.342;9.662;2023-03-11T00:44:32;4.00;74.10
11647;DHT22;5880;52.342;9.662;2023-03-11T00:46:58;4.00;74.10
11647;DHT22;5880;52.342;9.662;2023-03-11T00:49:24;4.00;74.10
11647;DHT22;5880;52.342;9.662;2023-03-11T00:51:49;4.00;74.10
11647;DHT22;5880;52.342;9.662;2023-03-11T00:54:15;4.00;74.10
11647;DHT22;5880;52.342;9.662;2023-03-11T00:56:41;4.00;74.10
11647;DHT22;5880;52.342;9.662;2023-03-11T00:59:06;4.00;74.10
11647;DHT22;5880;52.342;9.662;2023-03-11T01:01:32;4.00;74.20
11647;DHT22;5880;52.342;9.662;2023-03-11T01:03:57;4.00;74.20
11647;DHT22;5880;52.342;9.662;2023-03-11T01:06:23;4.00;74.20
11647;DHT22;5880;52.342;9.662;2023-03-11T01:08:49;4.00;74.10
11647;DHT22;5880;52.342;9.662;2023-03-11T01:11:14;4.00;74.10
11647;DHT22;5880;52.342;9.662;2023-03-11T01:13:40;4.00;74.10
11647;DHT22;5880;52.342;9.662;2023-03-11T01:16:06;3.90;74.10
11647;DHT22;5880;52.342;9.662;2023-03-11T01:18:33;3.90;74.10
11647;DHT22;5880;52.342;9.662;2023-03-11T01:20:59;3.90;74.10
11647;DHT22;5880;52.342;9.662;2023-03-11T01:23:25;3.90;74.00
11647;DHT22;5880;52.342;9.662;2023-03-11T01:25:50;3.90;74.10
11647;DHT22;5880;52.342;9.662;2023-03-11T01:28:16;3.90;74.10
11647;DHT22;5880;52.342;9.662;2023-03-11T01:30:42;3.90;74.10
11647;DHT22;5880;52.342;9.662;2023-03-11T01:33:13;3.90;74.10
11647;DHT22;5880;52.342;9.662;2023-03-11T01:35:42;3.90;74.20
11647;DHT22;5880;52.342;9.662;2023-03-11T01:38:09;4.40;74.40
11647;DHT22;5880;52.342;9.662;2023-03-11T01:40:39;3.90;74.30
11647;DHT22;5880;52.342;9.662;2023-03-11T01:46:07;3.90;74.30
11647;DHT22;5880;52.342;9.662;2023-03-11T01:48:36;3.90;74.30
11647;DHT22;5880;52.342;9.662;2023-03-11T01:51:04;3.90;74.30
11647;DHT22;5880;52.342;9.662;2023-03-11T01:53:31;3.90;74.30
11647;DHT22;5880;52.342;9.662;2023-03-11T01:55:57;3.90;74.30
11647;DHT22;5880;52.342;9.662;2023-03-11T01:58:25;3.90;74.30
11647;DHT22;5880;52.342;9.662;2023-03-11T02:00:55;3.90;74.30
11647;DHT22;5880;52.342;9.662;2023-03-11T02:03:28;3.90;74.30
11647;DHT22;5880;52.342;9.662;2023-03-11T02:05:58;3.90;74.20
11647;DHT22;5880;52.342;9.662;2023-03-11T02:08:27;3.90;74.20
11647;DHT22;5880;52.342;9.662;2023-03-11T02:10:54;3.90;74.20
11647;DHT22;5880;52.342;9.662;2023-03-11T02:13:22;3.90;74.30
11647;DHT22;5880;52.342;9.662;2023-03-11T02:15:48;3.90;74.30
11647;DHT22;5880;52.342;9.662;2023-03-11T02:18:16;3.90;74.30
11647;DHT22;5880;52.342;9.662;2023-03-11T02:29:28;3.90;74.30
11647;DHT22;5880;52.342;9.662;2023-03-11T02:31:55;3.90;74.30
11647;DHT22;5880;52.342;9.662;2023-03-11T02:34:25;3.90;74.30
11647;DHT22;5880;52.342;9.662;2023-03-11T02:36:59;3.90;74.20
11647;DHT22;5880;52.342;9.662;2023-03-11T02:39:34;4.00;74.20
11647;DHT22;5880;52.342;9.662;2023-03-11T02:42:04;3.90;74.20
11647;DHT22;5880;52.342;9.662;2023-03-11T02:44:34;3.90;74.10
11647;DHT22;5880;52.342;9.662;2023-03-11T02:47:01;3.90;74.10
11647;DHT22;5880;52.342;9.662;2023-03-11T02:49:27;3.90;74.10
11647;DHT22;5880;52.342;9.662;2023-03-11T02:51:54;3.90;74.10
11647;DHT22;5880;52.342;9.662;2023-03-11T02:54:19;3.90;74.10
11647;DHT22;5880;52.342;9.662;2023-03-11T02:56:45;3.90;74.10
11647;DHT22;5880;52.342;9.662;2023-03-11T02:59:11;3.80;74.00
11647;DHT22;5880;52.342;9.662;2023-03-11T03:01:36;3.90;74.10
11647;DHT22;5880;52.342;9.662;2023-03-11T03:04:02;3.80;73.90
11647;DHT22;5880;52.342;9.662;2023-03-11T03:06:28;3.80;73.90
11647;DHT22;5880;52.342;9.662;2023-03-11T03:08:54;3.80;73.90
11647;DHT22;5880;52.342;9.662;2023-03-11T03:11:22;4.20;74.20
11647;DHT22;5880;52.342;9.662;2023-03-11T03:13:48;3.70;74.00
11647;DHT22;5880;52.342;9.662;2023-03-11T03:16:14;3.70;74.10
11647;DHT22;5880;52.342;9.662;2023-03-11T03:18:39;3.70;74.30
11647;DHT22;5880;52.342;9.662;2023-03-11T03:21:08;3.80;74.20
11647;DHT22;5880;52.342;9.662;2023-03-11T03:23:34;3.80;74.10
11647;DHT22;5880;52.342;9.662;2023-03-11T03:26:02;3.90;74.10
11647;DHT22;5880;52.342;9.662;2023-03-11T03:28:29;3.70;74.10
11647;DHT22;5880;52.342;9.662;2023-03-11T03:30:55;3.70;74.10
11647;DHT22;5880;52.342;9.662;2023-03-11T03:33:24;3.70;74.10
11647;DHT22;5880;52.342;9.662;2023-03-11T03:35:49;3.70;74.10
11647;DHT22;5880;52.342;9.662;2023-03-11T03:38:15;3.70;74.20
11647;DHT22;5880;52.342;9.662;2023-03-11T03:40:45;3.70;74.20
11647;DHT22;5880;52.342;9.662;2023-03-11T03:43:11;3.70;74.20
11647;DHT22;5880;52.342;9.662;2023-03-11T03:45:37;3.70;74.20
11647;DHT22;5880;52.342;9.662;2023-03-11T03:48:03;3.70;74.30
11647;DHT22;5880;52.342;9.662;2023-03-11T03:50:29;3.70;74.30
11647;DHT22;5880;52.342;9.662;2023-03-11T03:52:54;3.80;74.50
11647;DHT22;5880;52.342;9.662;2023-03-11T03:55:20;3.80;74.40
11647;DHT22;5880;52.342;9.662;2023-03-11T03:57:46;3.80;74.50
11647;DHT22;5880;52.342;9.662;2023-03-11T04:00:12;3.80;74.30
11647;DHT22;5880;52.342;9.662;2023-03-11T04:02:38;3.80;74.20
11647;DHT22;5880;52.342;9.662;2023-03-11T04:05:04;3.80;74.20
11647;DHT22;5880;52.342;9.662;2023-03-11T04:07:30;3.80;74.10
11647;DHT22;5880;52.342;9.662;2023-03-11T04:10:00;3.70;74.00
11647;DHT22;5880;52.342;9.662;2023-03-11T04:12:26;3.70;74.70
11647;DHT22;5880;52.342;9.662;2023-03-11T04:14:54;3.70;74.00
11647;DHT22;5880;52.342;9.662;2023-03-11T04:17:20;3.70;74.00
11647;DHT22;5880;52.342;9.662;2023-03-11T04:19:46;3.70;74.10
11647;DHT22;5880;52.342;9.662;2023-03-11T04:22:11;3.70;74.00
11647;DHT22;5880;52.342;9.662;2023-03-11T04:24:37;3.70;74.00
11647;DHT22;5880;52.342;9.662;2023-03-11T04:27:05;3.70;74.00
11647;DHT22;5880;52.342;9.662;2023-03-11T04:29:30;4.00;74.10
11647;DHT22;5880;52.342;9.662;2023-03-11T04:31:56;3.60;73.90
11647;DHT22;5880;52.342;9.662;2023-03-11T04:34:22;3.70;74.00
11647;DHT22;5880;52.342;9.662;2023-03-11T04:36:51;3.70;74.00
11647;DHT22;5880;52.342;9.662;2023-03-11T04:39:19;3.60;73.90
11647;DHT22;5880;52.342;9.662;2023-03-11T04:41:44;3.60;73.90
11647;DHT22;5880;52.342;9.662;2023-03-11T04:44:10;3.60;73.90
11647;DHT22;5880;52.342;9.662;2023-03-11T04:46:36;3.60;73.90
11647;DHT22;5880;52.342;9.662;2023-03-11T04:49:01;3.60;73.70
11647;DHT22;5880;52.342;9.662;2023-03-11T04:51:27;3.60;73.60
11647;DHT22;5880;52.342;9.662;2023-03-11T04:53:53;3.50;73.50
11647;DHT22;5880;52.342;9.662;2023-03-11T04:56:19;3.50;73.50
11647;DHT22;5880;52.342;9.662;2023-03-11T04:58:44;3.50;73.60
11647;DHT22;5880;52.342;9.662;2023-03-11T05:01:10;3.50;73.70
11647;DHT22;5880;52.342;9.662;2023-03-11T05:03:38;3.40;73.70
11647;DHT22;5880;52.342;9.662;2023-03-11T05:06:04;3.30;73.80
11647;DHT22;5880;52.342;9.662;2023-03-11T05:08:30;3.40;73.90
11647;DHT22;5880;52.342;9.662;2023-03-11T05:10:55;3.40;74.10
11647;DHT22;5880;52.342;9.662;2023-03-11T05:13:21;3.40;74.10
11647;DHT22;5880;52.342;9.662;2023-03-11T05:15:47;3.40;74.20
11647;DHT22;5880;52.342;9.662;2023-03-11T05:18:14;3.40;74.30
11647;DHT22;5880;52.342;9.662;2023-03-11T05:20:40;3.40;74.30
11647;DHT22;5880;52.342;9.662;2023-03-11T05:23:05;3.50;74.40
11647;DHT22;5880;52.342;9.662;2023-03-11T05:25:31;3.50;74.40
11647;DHT22;5880;52.342;9.662;2023-03-11T05:27:57;3.50;74.40
11647;DHT22;5880;52.342;9.662;2023-03-11T05:30:22;3.50;74.30
11647;DHT22;5880;52.342;9.662;2023-03-11T05:32:48;3.50;74.30
11647;DHT22;5880;52.342;9.662;2023-03-11T05:35:14;3.50;74.30
11647;DHT22;5880;52.342;9.662;2023-03-11T05:37:40;3.50;74.30
11647;DHT22;5880;52.342;9.662;2023-03-11T05:40:06;3.50;74.20
11647;DHT22;5880;52.342;9.662;2023-03-11T05:42:35;3.50;74.20
11647;DHT22;5880;52.342;9.662;2023-03-11T05:45:00;3.50;74.30
11647;DHT22;5880;52.342;9.662;2023-03-11T05:47:26;3.60;74.30
11647;DHT22;5880;52.342;9.662;2023-03-11T05:49:52;3.60;74.30
11647;DHT22;5880;52.342;9.662;2023-03-11T05:52:17;3.60;74.30
11647;DHT22;5880;52.342;9.662;2023-03-11T05:54:43;3.60;74.10
11647;DHT22;5880;52.342;9.662;2023-03-11T05:57:09;3.60;74.00
11647;DHT22;5880;52.342;9.662;2023-03-11T05:59:34;3.60;74.10
11647;DHT22;5880;52.342;9.662;2023-03-11T06:02:04;3.50;74.10
11647;DHT22;5880;52.342;9.662;2023-03-11T06:04:30;3.60;74.10
11647;DHT22;5880;52.342;9.662;2023-03-11T06:06:56;3.50;74.20
11647;DHT22;5880;52.342;9.662;2023-03-11T06:09:21;3.50;74.30
11647;DHT22;5880;52.342;9.662;2023-03-11T06:11:47;3.60;74.50
11647;DHT22;5880;52.342;9.662;2023-03-11T06:14:13;3.60;74.60
11647;DHT22;5880;52.342;9.662;2023-03-11T06:16:40;4.30;75.00
11647;DHT22;5880;52.342;9.662;2023-03-11T06:19:06;3.60;74.50
11647;DHT22;5880;52.342;9.662;2023-03-11T06:21:31;3.60;74.50
11647;DHT22;5880;52.342;9.662;2023-03-11T06:23:57;3.70;74.60
11647;DHT22;5880;52.342;9.662;2023-03-11T06:26:23;3.70;74.60
11647;DHT22;5880;52.342;9.662;2023-03-11T06:28:50;3.70;74.60
11647;DHT22;5880;52.342;9.662;2023-03-11T06:31:20;3.70;74.50
11647;DHT22;5880;52.342;9.662;2023-03-11T06:33:48;3.70;74.50
11647;DHT22;5880;52.342;9.662;2023-03-11T06:36:16;3.80;74.40
11647;DHT22;5880;52.342;9.662;2023-03-11T06:38:42;3.80;74.30
11647;DHT22;5880;52.342;9.662;2023-03-11T06:41:09;3.80;74.30
11647;DHT22;5880;52.342;9.662;2023-03-11T06:43:35;3.80;74.40
11647;DHT22;5880;52.342;9.662;2023-03-11T06:46:04;3.80;74.50
11647;DHT22;5880;52.342;9.662;2023-03-11T06:48:33;3.80;74.30
11647;DHT22;5880;52.342;9.662;2023-03-11T06:50:59;3.90;74.40
11647;DHT22;5880;52.342;9.662;2023-03-11T06:53:26;3.90;74.30
11647;DHT22;5880;52.342;9.662;2023-03-11T06:56:06;3.90;74.20
11647;DHT22;5880;52.342;9.662;2023-03-11T06:58:38;3.90;74.10
11647;DHT22;5880;52.342;9.662;2023-03-11T07:01:06;3.90;74.10
11647;DHT22;5880;52.342;9.662;2023-03-11T07:03:34;3.90;74.10
11647;DHT22;5880;52.342;9.662;2023-03-11T07:06:00;3.90;74.20
11647;DHT22;5880;52.342;9.662;2023-03-11T07:08:26;3.90;74.10
11647;DHT22;5880;52.342;9.662;2023-03-11T07:11:19;3.90;74.10
11647;DHT22;5880;52.342;9.662;2023-03-11T07:13:50;3.90;73.90
11647;DHT22;5880;52.342;9.662;2023-03-11T07:16:21;3.90;74.10
11647;DHT22;5880;52.342;9.662;2023-03-11T07:18:50;4.00;73.90
11647;DHT22;5880;52.342;9.662;2023-03-11T07:21:19;4.00;74.00
11647;DHT22;5880;52.342;9.662;2023-03-11T07:23:51;3.90;74.10
11647;DHT22;5880;52.342;9.662;2023-03-11T07:26:21;3.90;74.10
11647;DHT22;5880;52.342;9.662;2023-03-11T07:28:47;4.00;74.20
11647;DHT22;5880;52.342;9.662;2023-03-11T07:31:17;4.00;74.20
11647;DHT22;5880;52.342;9.662;2023-03-11T07:33:45;4.00;75.60
11647;DHT22;5880;52.342;9.662;2023-03-11T07:36:13;4.20;77.70
11647;DHT22;5880;52.342;9.662;2023-03-11T07:38:41;4.50;80.60
11647;DHT22;5880;52.342;9.662;2023-03-11T07:41:08;4.90;81.20
11647;DHT22;5880;52.342;9.662;2023-03-11T07:43:36;5.20;80.20
11647;DHT22;5880;52.342;9.662;2023-03-11T07:46:09;5.50;78.50
11647;DHT22;5880;52.342;9.662;2023-03-11T07:48:38;5.70;76.50
11647;DHT22;5880;52.342;9.662;2023-03-11T07:51:11;5.80;75.00
11647;DHT22;5880;52.342;9.662;2023-03-11T07:53:40;5.80;73.20
11647;DHT22;5880;52.342;9.662;2023-03-11T07:56:07;5.70;72.50
11647;DHT22;5880;52.342;9.662;2023-03-11T07:58:35;5.60;72.00
11647;DHT22;5880;52.342;9.662;2023-03-11T08:01:06;5.50;72.00
11647;DHT22;5880;52.342;9.662;2023-03-11T08:03:34;5.40;71.70
11647;DHT22;5880;52.342;9.662;2023-03-11T08:06:01;5.40;72.10
11647;DHT22;5880;52.342;9.662;2023-03-11T08:08:27;5.30;72.70
11647;DHT22;5880;52.342;9.662;2023-03-11T08:10:53;5.20;73.00
11647;DHT22;5880;52.342;9.662;2023-03-11T08:13:19;5.20;73.30
11647;DHT22;5880;52.342;9.662;2023-03-11T08:15:45;5.20;73.50
11647;DHT22;5880;52.342;9.662;2023-03-11T08:18:10;5.20;73.50
11647;DHT22;5880;52.342;9.662;2023-03-11T08:20:37;5.20;73.70
11647;DHT22;5880;52.342;9.662;2023-03-11T08:23:04;5.30;74.10
11647;DHT22;5880;52.342;9.662;2023-03-11T08:25:30;5.20;74.20
11647;DHT22;5880;52.342;9.662;2023-03-11T08:27:56;5.30;74.40
11647;DHT22;5880;52.342;9.662;2023-03-11T08:30:22;5.30;74.50
11647;DHT22;5880;52.342;9.662;2023-03-11T08:32:48;5.30;74.50
11647;DHT22;5880;52.342;9.662;2023-03-11T08:35:15;5.40;74.40
11647;DHT22;5880;52.342;9.662;2023-03-11T08:37:41;5.40;73.60
11647;DHT22;5880;52.342;9.662;2023-03-11T08:40:07;5.40;74.10
11647;DHT22;5880;52.342;9.662;2023-03-11T08:42:35;5.50;74.10
11647;DHT22;5880;52.342;9.662;2023-03-11T08:45:00;5.50;74.00
11647;DHT22;5880;52.342;9.662;2023-03-11T08:47:26;5.50;73.90
11647;DHT22;5880;52.342;9.662;2023-03-11T08:49:52;5.50;74.00
11647;DHT22;5880;52.342;9.662;2023-03-11T08:52:18;5.50;74.20
11647;DHT22;5880;52.342;9.662;2023-03-11T08:54:43;5.60;74.30
11647;DHT22;5880;52.342;9.662;2023-03-11T08:57:09;5.60;74.40
11647;DHT22;5880;52.342;9.662;2023-03-11T08:59:35;5.70;74.30
11647;DHT22;5880;52.342;9.662;2023-03-11T09:02:01;5.70;74.30
11647;DHT22;5880;52.342;9.662;2023-03-11T09:04:26;5.80;74.00
11647;DHT22;5880;52.342;9.662;2023-03-11T09:06:53;5.90;74.30
11647;DHT22;5880;52.342;9.662;2023-03-11T09:09:19;6.10;74.60
11647;DHT22;5880;52.342;9.662;2023-03-11T09:11:48;5.90;76.10
11647;DHT22;5880;52.342;9.662;2023-03-11T09:14:14;6.10;78.40
11647;DHT22;5880;52.342;9.662;2023-03-11T09:16:40;6.40;80.40
11647;DHT22;5880;52.342;9.662;2023-03-11T09:19:05;6.80;82.10
11647;DHT22;5880;52.342;9.662;2023-03-11T09:21:35;7.40;83.50
11647;DHT22;5880;52.342;9.662;2023-03-11T09:24:02;7.90;84.70
11647;DHT22;5880;52.342;9.662;2023-03-11T09:26:30;8.60;84.70
11647;DHT22;5880;52.342;9.662;2023-03-11T09:28:56;9.30;84.60
11647;DHT22;5880;52.342;9.662;2023-03-11T09:31:22;9.90;83.50
11647;DHT22;5880;52.342;9.662;2023-03-11T09:33:48;10.50;82.30
11647;DHT22;5880;52.342;9.662;2023-03-11T09:36:18;11.00;81.40
11647;DHT22;5880;52.342;9.662;2023-03-11T09:38:46;11.50;80.00
11647;DHT22;5880;52.342;9.662;2023-03-11T09:41:21;12.00;78.30
11647;DHT22;5880;52.342;9.662;2023-03-11T09:47:03;12.70;74.90
11647;DHT22;5880;52.342;9.662;2023-03-11T09:50:17;13.00;76.30
11647;DHT22;5880;52.342;9.662;2023-03-11T09:52:57;13.30;72.10
11647;DHT22;5880;52.342;9.662;2023-03-11T09:55:56;13.60;72.80
11647;DHT22;5880;52.342;9.662;2023-03-11T09:58:40;13.80;72.90
11647;DHT22;5880;52.342;9.662;2023-03-11T10:01:42;14.00;70.50
11647;DHT22;5880;52.342;9.662;2023-03-11T10:04:20;14.20;68.80
11647;DHT22;5880;52.342;9.662;2023-03-11T10:06:52;14.30;71.30
11647;DHT22;5880;52.342;9.662;2023-03-11T10:15:45;14.50;69.40
11647;DHT22;5880;52.342;9.662;2023-03-11T10:21:22;14.50;64.90
11647;DHT22;5880;52.342;9.662;2023-03-11T10:24:34;14.50;67.70
11647;DHT22;5880;52.342;9.662;2023-03-11T10:27:14;14.50;65.50
11647;DHT22;5880;52.342;9.662;2023-03-11T10:29:57;14.60;68.30
11647;DHT22;5880;52.342;9.662;2023-03-11T10:32:38;14.50;65.80
11647;DHT22;5880;52.342;9.662;2023-03-11T10:35:15;14.60;66.70
11647;DHT22;5880;52.342;9.662;2023-03-11T10:37:52;14.60;67.50
11647;DHT22;5880;52.342;9.662;2023-03-11T10:40:32;14.50;64.20
11647;DHT22;5880;52.342;9.662;2023-03-11T10:43:04;14.40;63.10
11647;DHT22;5880;52.342;9.662;2023-03-11T10:45:39;14.10;62.50
11647;DHT22;5880;52.342;9.662;2023-03-11T10:48:14;13.90;63.10
11647;DHT22;5880;52.342;9.662;2023-03-11T10:51:02;13.50;61.70
11647;DHT22;5880;52.342;9.662;2023-03-11T10:53:45;13.10;60.00
11647;DHT22;5880;52.342;9.662;2023-03-11T10:56:31;12.70;61.40
11647;DHT22;5880;52.342;9.662;2023-03-11T10:59:27;12.30;61.70
11647;DHT22;5880;52.342;9.662;2023-03-11T11:02:24;12.00;62.60
11647;DHT22;5880;52.342;9.662;2023-03-11T11:07:48;11.30;63.20
11647;DHT22;5880;52.342;9.662;2023-03-11T11:10:24;11.00;65.70
11647;DHT22;5880;52.342;9.662;2023-03-11T11:12:54;10.70;65.20
11647;DHT22;5880;52.342;9.662;2023-03-11T11:15:56;10.50;65.40
11647;DHT22;5880;52.342;9.662;2023-03-11T11:19:23;10.20;62.50
11647;DHT22;5880;52.342;9.662;2023-03-11T11:21:48;9.90;63.30
11647;DHT22;5880;52.342;9.662;2023-03-11T11:24:28;9.60;64.50
11647;DHT22;5880;52.342;9.662;2023-03-11T11:29:36;9.10;64.90
11647;DHT22;5880;52.342;9.662;2023-03-11T11:32:16;8.90;66.40
11647;DHT22;5880;52.342;9.662;2023-03-11T11:37:37;8.60;66.10
11647;DHT22;5880;52.342;9.662;2023-03-11T11:42:43;8.30;68.50
11647;DHT22;5880;52.342;9.662;2023-03-11T11:48:32;8.10;68.50
11647;DHT22;5880;52.342;9.662;2023-03-11T11:51:01;8.10;66.90
11647;DHT22;5880;52.342;9.662;2023-03-11T11:53:40;8.00;69.30
11647;DHT22;5880;52.342;9.662;2023-03-11T11:56:14;7.90;69.50
11647;DHT22;5880;52.342;9.662;2023-03-11T11:58:39;7.80;69.70
11647;DHT22;5880;52.342;9.662;2023-03-11T12:01:37;7.80;69.30
11647;DHT22;5880;52.342;9.662;2023-03-11T12:07:32;7.70;66.30
11647;DHT22;5880;52.342;9.662;2023-03-11T12:15:29;7.70;69.60
11647;DHT22;5880;52.342;9.662;2023-03-11T12:18:05;7.70;69.80
11647;DHT22;5880;52.342;9.662;2023-03-11T12:20:51;7.70;69.60
11647;DHT22;5880;52.342;9.662;2023-03-11T12:23:51;7.60;69.50
11647;DHT22;5880;52.342;9.662;2023-03-11T12:26:33;7.70;69.30
11647;DHT22;5880;52.342;9.662;2023-03-11T12:29:11;7.80;70.00
11647;DHT22;5880;52.342;9.662;2023-03-11T12:31:51;7.70;70.40
11647;DHT22;5880;52.342;9.662;2023-03-11T12:34:20;7.70;70.70
11647;DHT22;5880;52.342;9.662;2023-03-11T12:36:50;7.70;70.20
11647;DHT22;5880;52.342;9.662;2023-03-11T12:44:39;7.70;68.70
11647;DHT22;5880;52.342;9.662;2023-03-11T12:49:41;7.70;69.40
11647;DHT22;5880;52.342;9.662;2023-03-11T12:54:44;7.70;69.80
11647;DHT22;5880;52.342;9.662;2023-03-11T13:00:07;7.60;69.10
11647;DHT22;5880;52.342;9.662;2023-03-11T13:03:07;7.50;68.40
11647;DHT22;5880;52.342;9.662;2023-03-11T13:06:18;7.70;69.60
11647;DHT22;5880;52.342;9.662;2023-03-11T13:09:15;7.70;69.70
11647;DHT22;5880;52.342;9.662;2023-03-11T13:11:44;7.70;70.30
11647;DHT22;5880;52.342;9.662;2023-03-11T13:16:41;7.60;67.50
11647;DHT22;5880;52.342;9.662;2023-03-11T13:21:55;7.70;68.30
11647;DHT22;5880;52.342;9.662;2023-03-11T13:27:04;7.60;69.60
11647;DHT22;5880;52.342;9.662;2023-03-11T13:32:59;7.70;69.80
11647;DHT22;5880;52.342;9.662;2023-03-11T13:42:02;7.70;66.10
11647;DHT22;5880;52.342;9.662;2023-03-11T13:44:35;7.70;68.70
11647;DHT22;5880;52.342;9.662;2023-03-11T13:47:15;7.70;69.00
11647;DHT22;5880;52.342;9.662;2023-03-11T13:52:33;7.70;64.80
11647;DHT22;5880;52.342;9.662;2023-03-11T13:55:20;7.70;67.70
11647;DHT22;5880;52.342;9.662;2023-03-11T13:57:56;7.70;67.40
11647;DHT22;5880;52.342;9.662;2023-03-11T14:00:27;7.70;68.70
11647;DHT22;5880;52.342;9.662;2023-03-11T14:02:57;7.70;68.90
11647;DHT22;5880;52.342;9.662;2023-03-11T14:05:37;7.70;68.40
11647;DHT22;5880;52.342;9.662;2023-03-11T14:08:27;7.70;67.90
11647;DHT22;5880;52.342;9.662;2023-03-11T14:13:42;7.80;68.40
11647;DHT22;5880;52.342;9.662;2023-03-11T14:18:44;7.80;68.70
11647;DHT22;5880;52.342;9.662;2023-03-11T14:21:18;7.90;69.20
11647;DHT22;5880;52.342;9.662;2023-03-11T14:23:50;7.90;68.50
11647;DHT22;5880;52.342;9.662;2023-03-11T14:29:01;8.00;69.30
11647;DHT22;5880;52.342;9.662;2023-03-11T14:31:38;8.00;68.90
11647;DHT22;5880;52.342;9.662;2023-03-11T14:34:18;8.10;68.70
11647;DHT22;5880;52.342;9.662;2023-03-11T14:36:46;8.00;67.80
11647;DHT22;5880;52.342;9.662;2023-03-11T14:42:05;7.90;67.40
11647;DHT22;5880;52.342;9.662;2023-03-11T14:44:34;7.90;66.60
11647;DHT22;5880;52.342;9.662;2023-03-11T14:47:14;7.90;67.10
11647;DHT22;5880;52.342;9.662;2023-03-11T14:49:49;7.80;67.10
11647;DHT22;5880;52.342;9.662;2023-03-11T14:55:32;7.70;66.60
11647;DHT22;5880;52.342;9.662;2023-03-11T14:58:31;7.60;65.80
11647;DHT22;5880;52.342;9.662;2023-03-11T15:01:13;7.50;65.60
11647;DHT22;5880;52.342;9.662;2023-03-11T15:03:51;7.40;66.20
11647;DHT22;5880;52.342;9.662;2023-03-11T15:06:22;7.40;66.50
11647;DHT22;5880;52.342;9.662;2023-03-11T15:09:05;7.30;67.60
11647;DHT22;5880;52.342;9.662;2023-03-11T15:11:49;7.40;66.20
11647;DHT22;5880;52.342;9.662;2023-03-11T15:16:47;7.30;67.20
11647;DHT22;5880;52.342;9.662;2023-03-11T15:19:30;7.30;67.90
11647;DHT22;5880;52.342;9.662;2023-03-11T15:24:56;7.30;66.30
11647;DHT22;5880;52.342;9.662;2023-03-11T15:30:14;7.40;67.00
11647;DHT22;5880;52.342;9.662;2023-03-11T15:32:44;7.40;67.00
11647;DHT22;5880;52.342;9.662;2023-03-11T15:35:17;7.40;67.00
11647;DHT22;5880;52.342;9.662;2023-03-11T15:37:46;7.40;67.20
11647;DHT22;5880;52.342;9.662;2023-03-11T15:40:28;7.40;67.60
11647;DHT22;5880;52.342;9.662;2023-03-11T15:43:27;7.40;65.80
11647;DHT22;5880;52.342;9.662;2023-03-11T15:45:56;7.50;66.20
11647;DHT22;5880;52.342;9.662;2023-03-11T15:48:24;7.50;67.40
11647;DHT22;5880;52.342;9.662;2023-03-11T15:50:55;7.40;67.00
11647;DHT22;5880;52.342;9.662;2023-03-11T15:53:24;7.40;66.70
11647;DHT22;5880;52.342;9.662;2023-03-11T15:55:52;7.40;66.70
11647;DHT22;5880;52.342;9.662;2023-03-11T15:58:21;7.40;65.30
11647;DHT22;5880;52.342;9.662;2023-03-11T16:00:49;7.30;65.50
11647;DHT22;5880;52.342;9.662;2023-03-11T16:03:18;7.30;65.30
11647;DHT22;5880;52.342;9.662;2023-03-11T16:05:45;7.30;65.90
11647;DHT22;5880;52.342;9.662;2023-03-11T16:08:11;7.20;65.60
11647;DHT22;5880;52.342;9.662;2023-03-11T16:10:37;7.20;66.10
11647;DHT22;5880;52.342;9.662;2023-03-11T16:13:04;7.20;66.10
11647;DHT22;5880;52.342;9.662;2023-03-11T16:15:33;7.10;66.50
11647;DHT22;5880;52.342;9.662;2023-03-11T16:18:03;7.10;64.70
11647;DHT22;5880;52.342;9.662;2023-03-11T16:20:43;7.10;65.10
11647;DHT22;5880;52.342;9.662;2023-03-11T16:23:25;7.00;65.70
11647;DHT22;5880;52.342;9.662;2023-03-11T16:25:57;7.00;64.30
11647;DHT22;5880;52.342;9.662;2023-03-11T16:28:25;7.00;65.90
11647;DHT22;5880;52.342;9.662;2023-03-11T16:30:50;6.90;66.10
11647;DHT22;5880;52.342;9.662;2023-03-11T16:33:16;6.80;65.30
11647;DHT22;5880;52.342;9.662;2023-03-11T16:35:42;6.80;66.50
11647;DHT22;5880;52.342;9.662;2023-03-11T16:38:08;6.90;65.50
11647;DHT22;5880;52.342;9.662;2023-03-11T16:40:34;6.80;64.90
11647;DHT22;5880;52.342;9.662;2023-03-11T16:43:02;6.70;63.70
11647;DHT22;5880;52.342;9.662;2023-03-11T16:45:30;6.60;65.30
11647;DHT22;5880;52.342;9.662;2023-03-11T16:47:56;6.60;65.40
11647;DHT22;5880;52.342;9.662;2023-03-11T16:50:22;6.60;65.90
11647;DHT22;5880;52.342;9.662;2023-03-11T16:52:49;6.50;65.60
11647;DHT22;5880;52.342;9.662;2023-03-11T16:55:16;6.50;65.60
11647;DHT22;5880;52.342;9.662;2023-03-11T16:57:41;6.40;65.70
11647;DHT22;5880;52.342;9.662;2023-03-11T17:00:08;6.40;65.60
11647;DHT22;5880;52.342;9.662;2023-03-11T17:02:36;6.40;65.70
11647;DHT22;5880;52.342;9.662;2023-03-11T17:05:03;6.30;64.90
11647;DHT22;5880;52.342;9.662;2023-03-11T17:07:31;6.20;65.40
11647;DHT22;5880;52.342;9.662;2023-03-11T17:09:58;6.20;65.60
11647;DHT22;5880;52.342;9.662;2023-03-11T17:12:25;6.20;65.70
11647;DHT22;5880;52.342;9.662;2023-03-11T17:14:52;6.10;65.80
11647;DHT22;5880;52.342;9.662;2023-03-11T17:17:19;6.10;65.40
11647;DHT22;5880;52.342;9.662;2023-03-11T17:19:46;6.00;65.50
11647;DHT22;5880;52.342;9.662;2023-03-11T17:22:12;6.00;65.80
11647;DHT22;5880;52.342;9.662;2023-03-11T17:24:38;5.90;66.00
11647;DHT22;5880;52.342;9.662;2023-03-11T17:27:04;5.90;66.00
11647;DHT22;5880;52.342;9.662;2023-03-11T17:29:30;5.90;66.00
11647;DHT22;5880;52.342;9.662;2023-03-11T17:31:55;5.80;66.10
11647;DHT22;5880;52.342;9.662;2023-03-11T17:34:22;5.70;66.10
11647;DHT22;5880;52.342;9.662;2023-03-11T17:36:48;5.70;66.10
11647;DHT22;5880;52.342;9.662;2023-03-11T17:39:14;5.70;66.20
11647;DHT22;5880;52.342;9.662;2023-03-11T17:41:39;5.60;66.20
11647;DHT22;5880;52.342;9.662;2023-03-11T17:44:05;5.60;66.20
11647;DHT22;5880;52.342;9.662;2023-03-11T17:46:32;5.50;66.20
11647;DHT22;5880;52.342;9.662;2023-03-11T17:48:59;5.50;66.40
11647;DHT22;5880;52.342;9.662;2023-03-11T17:51:25;5.40;66.40
11647;DHT22;5880;52.342;9.662;2023-03-11T17:53:53;5.40;66.50
11647;DHT22;5880;52.342;9.662;2023-03-11T17:56:21;5.40;66.50
11647;DHT22;5880;52.342;9.662;2023-03-11T17:58:48;5.30;66.50
11647;DHT22;5880;52.342;9.662;2023-03-11T18:01:19;5.30;66.60